createdAt,value
2017-10-11T00:01:26.091Z,13.1
2017-10-11T00:02:25.171Z,13.1
2017-10-11T00:03:24.379Z,13.1
2017-10-11T00:04:23.745Z,13.1
2017-10-11T00:05:22.961Z,13.1
2017-10-11T00:06:22.181Z,13.1
2017-10-11T00:07:21.166Z,13
2017-10-11T00:08:20.243Z,13.1
2017-10-11T00:09:20.103Z,13.1
2017-10-11T00:10:18.817Z,13.1
2017-10-11T00:11:18.031Z,13.1
2017-10-11T00:12:17.428Z,13.1
2017-10-11T00:13:16.546Z,13.1
2017-10-11T00:15:14.796Z,13.1
2017-10-11T00:16:14.431Z,13.1
2017-10-11T00:17:12.923Z,13.1
2017-10-11T00:18:12.278Z,13.1
2017-10-11T00:21:09.890Z,13.1
2017-10-11T00:22:09.270Z,13.1
2017-10-11T00:23:08.487Z,13.1
2017-10-11T00:24:07.435Z,13.1
2017-10-11T00:25:06.786Z,13.1
2017-10-11T00:26:06.267Z,13.1
2017-10-11T00:27:05.112Z,13.1
2017-10-11T00:28:04.467Z,13.1
2017-10-11T00:30:02.927Z,13
2017-10-11T00:31:02.277Z,13
2017-10-11T00:32:01.503Z,13
2017-10-11T00:33:00.486Z,13
2017-10-11T00:33:59.962Z,13
2017-10-11T00:34:58.954Z,13
2017-10-11T00:35:57.942Z,13
2017-10-11T00:37:56.411Z,13
2017-10-11T00:38:55.501Z,13
2017-10-11T00:39:55.221Z,13
2017-10-11T00:40:54.074Z,13
2017-10-11T00:41:53.552Z,13
2017-10-11T00:42:52.541Z,13.1
2017-10-11T00:43:51.883Z,13.1
2017-10-11T00:44:50.738Z,13.1
2017-10-11T00:45:50.366Z,13.1
2017-10-11T00:46:49.342Z,13.1
2017-10-11T00:47:48.427Z,13.1
2017-10-11T00:48:47.770Z,13.1
2017-10-11T00:50:45.874Z,13
2017-10-11T00:51:45.357Z,13
2017-10-11T00:53:43.865Z,12.9
2017-10-11T00:54:42.844Z,12.9
2017-10-11T00:55:42.197Z,12.9
2017-10-11T00:56:41.540Z,12.9
2017-10-11T00:57:40.625Z,12.9
2017-10-11T00:58:39.607Z,12.9
2017-10-11T00:59:38.826Z,12.9
2017-10-11T01:00:37.905Z,12.9
2017-10-11T01:01:37.119Z,12.9
2017-10-11T01:02:36.580Z,12.9
2017-10-11T01:03:35.795Z,12.9
2017-10-11T01:04:35.276Z,12.9
2017-10-11T01:05:34.259Z,12.8
2017-10-11T01:06:33.095Z,12.8
2017-10-11T01:07:32.580Z,12.8
2017-10-11T01:08:31.565Z,12.8
2017-10-11T01:09:31.061Z,12.8
2017-10-11T01:10:30.037Z,12.8
2017-10-11T01:11:29.390Z,12.8
2017-10-11T01:12:28.241Z,12.8
2017-10-11T01:13:27.325Z,12.8
2017-10-11T01:14:26.548Z,12.7
2017-10-11T01:15:25.880Z,12.7
2017-10-11T01:16:25.362Z,12.7
2017-10-11T01:17:24.476Z,12.7
2017-10-11T01:18:23.833Z,12.7
2017-10-11T01:19:22.923Z,12.7
2017-10-11T01:20:21.765Z,12.6
2017-10-11T01:21:21.614Z,12.6
2017-10-11T01:22:20.472Z,12.6
2017-10-11T01:23:19.817Z,12.6
2017-10-11T01:24:18.801Z,12.6
2017-10-11T01:25:18.287Z,12.6
2017-10-11T01:26:17.506Z,12.6
2017-10-11T01:27:16.227Z,12.6
2017-10-11T01:28:15.569Z,12.6
2017-10-11T01:30:14.175Z,12.6
2017-10-11T01:31:13.033Z,12.6
2017-10-11T01:32:12.484Z,12.7
2017-10-11T01:34:10.949Z,12.7
2017-10-11T01:36:08.920Z,12.7
2017-10-11T01:37:08.509Z,12.7
2017-10-11T01:38:07.490Z,12.7
2017-10-11T01:39:06.967Z,12.7
2017-10-11T01:40:05.684Z,12.7
2017-10-11T01:41:05.157Z,12.8
2017-10-11T01:42:04.382Z,12.8
2017-10-11T01:43:03.728Z,12.8
2017-10-11T01:44:02.811Z,12.8
2017-10-11T01:45:01.900Z,12.8
2017-10-11T01:46:01.124Z,12.8
2017-10-11T01:47:00.337Z,12.8
2017-10-11T01:47:59.418Z,12.9
2017-10-11T01:48:58.765Z,12.9
2017-10-11T01:49:57.615Z,12.9
2017-10-11T01:50:57.324Z,12.9
2017-10-11T01:51:56.037Z,12.9
2017-10-11T01:52:55.524Z,13
2017-10-11T01:53:54.737Z,12.9
2017-10-11T01:54:53.718Z,13
2017-10-11T01:55:53.198Z,13
2017-10-11T01:56:52.278Z,13
2017-10-11T01:57:51.492Z,13
2017-10-11T01:58:50.747Z,13
2017-10-11T01:59:50.103Z,13
2017-10-11T02:00:49.326Z,13
2017-10-11T02:01:48.302Z,13
2017-10-11T02:02:47.156Z,13.1
2017-10-11T02:03:46.500Z,13.1
2017-10-11T02:04:17.169Z,13.1
2017-10-11T02:05:45.075Z,13.1
2017-10-11T02:06:44.054Z,13.2
2017-10-11T02:07:43.406Z,13.2
2017-10-11T02:08:42.493Z,13.2
2017-10-11T02:09:41.709Z,13.2
2017-10-11T02:10:40.791Z,13.2
2017-10-11T02:11:40.374Z,13.2
2017-10-11T02:12:39.597Z,13.3
2017-10-11T02:13:38.441Z,13.2
2017-10-11T02:14:37.665Z,13.2
2017-10-11T02:15:37.153Z,13.3
2017-10-11T02:16:36.504Z,13.3
2017-10-11T02:18:34.873Z,13.3
2017-10-11T02:19:34.099Z,13.3
2017-10-11T02:20:32.951Z,13.4
2017-10-11T02:21:32.433Z,13.4
2017-10-11T02:22:31.280Z,13.4
2017-10-11T02:23:30.904Z,13.4
2017-10-11T02:24:00.949Z,13.4
2017-10-11T02:24:31.639Z,13.4
2017-10-11T02:25:29.219Z,13.4
2017-10-11T02:26:27.953Z,13.5
2017-10-11T02:27:27.321Z,13.5
2017-10-11T02:28:26.915Z,13.5
2017-10-11T02:29:25.770Z,13.5
2017-10-11T02:30:25.123Z,13.6
2017-10-11T02:31:24.347Z,13.5
2017-10-11T02:32:23.202Z,13.5
2017-10-11T02:33:22.434Z,13.6
2017-10-11T02:34:21.658Z,13.6
2017-10-11T02:35:21.016Z,13.6
2017-10-11T02:36:20.643Z,13.6
2017-10-11T02:37:19.506Z,13.6
2017-10-11T02:38:18.857Z,13.5
2017-10-11T02:39:18.225Z,13.5
2017-10-11T02:40:17.219Z,13.5
2017-10-11T02:41:15.942Z,13.5
2017-10-11T02:42:15.695Z,13.5
2017-10-11T02:43:14.555Z,13.5
2017-10-11T02:44:14.068Z,13.6
2017-10-11T02:45:13.054Z,13.6
2017-10-11T02:46:12.561Z,13.5
2017-10-11T02:47:11.839Z,13.5
2017-10-11T02:48:10.569Z,13.5
2017-10-11T02:49:10.062Z,13.5
2017-10-11T02:50:09.292Z,13.5
2017-10-11T02:51:08.154Z,13.5
2017-10-11T02:52:07.386Z,13.5
2017-10-11T02:53:06.890Z,13.5
2017-10-11T02:54:06.017Z,13.5
2017-10-11T02:55:05.007Z,13.5
2017-10-11T02:56:04.377Z,13.5
2017-10-11T02:57:03.493Z,13.5
2017-10-11T02:58:02.990Z,13.5
2017-10-11T02:59:01.970Z,13.5
2017-10-11T03:00:01.324Z,13.5
2017-10-11T03:01:00.320Z,13.5
2017-10-11T03:01:59.680Z,13.6
2017-10-11T03:02:58.665Z,13.6
2017-10-11T03:03:57.896Z,13.5
2017-10-11T03:05:56.637Z,13.6
2017-10-11T03:06:55.615Z,13.6
2017-10-11T03:07:54.966Z,13.6
2017-10-11T03:08:54.325Z,13.6
2017-10-11T03:09:53.046Z,13.6
2017-10-11T03:10:52.131Z,13.6
2017-10-11T03:11:51.480Z,13.6
2017-10-11T03:12:50.698Z,13.6
2017-10-11T03:13:49.790Z,13.6
2017-10-11T03:14:49.523Z,13.5
2017-10-11T03:15:48.381Z,13.5
2017-10-11T03:16:47.880Z,13.6
2017-10-11T03:17:46.981Z,13.6
2017-10-11T03:18:45.818Z,13.6
2017-10-11T03:19:45.191Z,13.6
2017-10-11T03:20:44.685Z,13.6
2017-10-11T03:21:44.029Z,13.6
2017-10-11T03:22:42.767Z,13.6
2017-10-11T03:23:42.389Z,13.6
2017-10-11T03:24:41.225Z,13.6
2017-10-11T03:25:40.438Z,13.6
2017-10-11T03:26:39.652Z,13.6
2017-10-11T03:27:38.869Z,13.6
2017-10-11T03:28:38.591Z,13.6
2017-10-11T03:29:37.303Z,13.6
2017-10-11T03:30:36.810Z,13.6
2017-10-11T03:31:35.917Z,13.6
2017-10-11T03:32:35.128Z,13.6
2017-10-11T03:33:34.375Z,13.6
2017-10-11T03:34:33.352Z,13.6
2017-10-11T03:35:32.851Z,13.6
2017-10-11T03:36:31.693Z,13.6
2017-10-11T03:38:30.294Z,13.6
2017-10-11T03:39:29.501Z,13.5
2017-10-11T03:40:28.721Z,13.6
2017-10-11T03:41:28.061Z,13.6
2017-10-11T03:42:27.275Z,13.5
2017-10-11T03:43:26.359Z,13.5
2017-10-11T03:44:25.572Z,13.5
2017-10-11T03:45:24.806Z,13.6
2017-10-11T03:46:23.916Z,13.6
2017-10-11T03:47:23.001Z,13.6
2017-10-11T03:48:22.088Z,13.6
2017-10-11T03:49:21.441Z,13.6
2017-10-11T03:50:20.898Z,13.6
2017-10-11T03:51:20.262Z,13.6
2017-10-11T03:52:18.980Z,13.6
2017-10-11T03:54:17.450Z,13.6
2017-10-11T03:55:16.535Z,13.6
2017-10-11T03:56:16.027Z,13.6
2017-10-11T03:57:15.382Z,13.6
2017-10-11T03:58:14.597Z,13.6
2017-10-11T03:59:13.709Z,13.6
2017-10-11T04:01:11.808Z,13.6
2017-10-11T04:02:11.533Z,13.6
2017-10-11T04:03:10.242Z,13.6
2017-10-11T04:04:09.967Z,13.6
2017-10-11T04:05:09.054Z,13.6
2017-10-11T04:06:08.168Z,13.6
2017-10-11T04:07:07.384Z,13.6
2017-10-11T04:08:06.874Z,13.6
2017-10-11T04:09:05.958Z,13.6
2017-10-11T04:10:04.947Z,13.6
2017-10-11T04:11:04.298Z,13.6
2017-10-11T04:12:03.644Z,13.6
2017-10-11T04:15:01.132Z,13.6
2017-10-11T04:20:56.376Z,13.5
2017-10-11T04:22:54.746Z,13.6
2017-10-11T04:24:53.109Z,13.6
2017-10-11T04:26:51.479Z,13.6
2017-10-11T04:27:50.569Z,13.6
2017-10-11T04:28:49.911Z,13.6
2017-10-11T04:29:49.267Z,13.6
2017-10-11T04:30:48.537Z,13.6
2017-10-11T04:31:47.624Z,13.6
2017-10-11T04:32:46.976Z,13.6
2017-10-11T04:33:46.458Z,13.6
2017-10-11T04:34:45.042Z,13.6
2017-10-11T04:35:15.711Z,13.6
2017-10-11T04:36:43.762Z,13.6
2017-10-11T04:37:43.116Z,13.6
2017-10-11T04:38:41.970Z,13.5
2017-10-11T04:39:41.558Z,13.5
2017-10-11T04:40:40.903Z,13.5
2017-10-11T04:41:39.610Z,13.5
2017-10-11T04:42:39.099Z,13.5
2017-10-11T04:43:38.578Z,13.5
2017-10-11T04:44:37.685Z,13.6
2017-10-11T04:45:36.528Z,13.6
2017-10-11T04:46:35.752Z,13.6
2017-10-11T04:47:35.245Z,13.6
2017-10-11T04:48:34.328Z,13.6
2017-10-11T04:49:33.443Z,13.6
2017-10-11T04:50:32.796Z,13.6
2017-10-11T04:51:32.015Z,13.5
2017-10-11T04:52:02.534Z,13.5
2017-10-11T04:52:32.940Z,13.6
2017-10-11T04:53:03.336Z,13.6
2017-10-11T04:53:33.882Z,13.6
2017-10-11T04:54:04.543Z,13.6
2017-10-11T04:54:34.788Z,13.6
2017-10-11T04:55:05.715Z,13.6
2017-10-11T04:57:27.318Z,13.6
2017-10-11T04:58:26.278Z,13.6
2017-10-11T04:59:25.742Z,13.5
2017-10-11T05:00:24.583Z,13.6
2017-10-11T05:01:23.915Z,13.6
2017-10-11T05:02:23.009Z,13.5
2017-10-11T05:03:22.606Z,13.5
2017-10-11T05:04:21.438Z,13.5
2017-10-11T05:05:20.904Z,13.5
2017-10-11T05:06:20.405Z,13.5
2017-10-11T05:07:19.369Z,13.5
2017-10-11T05:08:18.466Z,13.5
2017-10-11T05:09:17.666Z,13.5
2017-10-11T05:10:16.877Z,13.5
2017-10-11T05:11:15.946Z,13.5
2017-10-11T05:12:15.149Z,13.4
2017-10-11T05:14:13.466Z,13.4
2017-10-11T05:15:13.177Z,13.4
2017-10-11T05:16:12.006Z,13.4
2017-10-11T05:17:11.338Z,13.4
2017-10-11T05:18:10.944Z,13.3
2017-10-11T05:19:09.641Z,13.3
2017-10-11T05:20:09.350Z,13.3
2017-10-11T05:21:08.055Z,13.3
2017-10-11T05:22:07.387Z,13.3
2017-10-11T05:23:06.496Z,13.2
2017-10-11T05:24:05.848Z,13.2
2017-10-11T05:25:05.202Z,13.2
2017-10-11T05:26:03.918Z,13.1
2017-10-11T05:27:03.264Z,13.1
2017-10-11T05:28:02.854Z,13.1
2017-10-11T05:29:01.953Z,13.1
2017-10-11T05:30:00.805Z,13.1
2017-10-11T05:31:00.156Z,13.1
2017-10-11T05:31:59.374Z,13.1
2017-10-11T05:32:58.462Z,13.1
2017-10-11T05:33:58.057Z,13.1
2017-10-11T05:34:57.051Z,13.1
2017-10-11T05:35:27.587Z,13.1
2017-10-11T05:36:55.641Z,13
2017-10-11T05:37:54.854Z,13.1
2017-10-11T05:38:54.205Z,13.1
2017-10-11T05:39:53.181Z,13.1
2017-10-11T05:40:52.431Z,13.1
2017-10-11T05:41:51.410Z,13.1
2017-10-11T05:42:50.635Z,13.1
2017-10-11T05:43:49.855Z,13.1
2017-10-11T05:44:49.091Z,13.1
2017-10-11T05:45:48.589Z,13.1
2017-10-11T05:46:19.259Z,13.1
2017-10-11T05:47:46.800Z,13.2
2017-10-11T05:48:46.019Z,13.2
2017-10-11T05:49:45.376Z,13.2
2017-10-11T05:51:43.610Z,13.2
2017-10-11T05:52:42.824Z,13.2
2017-10-11T05:53:42.179Z,13.2
2017-10-11T05:54:41.036Z,13.3
2017-10-11T05:55:40.509Z,13.3
2017-10-11T05:56:39.485Z,13.3
2017-10-11T05:57:38.694Z,13.3
2017-10-11T05:58:38.044Z,13.4
2017-10-11T05:59:37.429Z,13.4
2017-10-11T06:00:36.644Z,13.4
2017-10-11T06:01:35.731Z,13.5
2017-10-11T06:02:35.075Z,13.5
2017-10-11T06:03:33.916Z,13.5
2017-10-11T06:04:33.004Z,13.5
2017-10-11T06:05:32.349Z,13.6
2017-10-11T06:06:31.833Z,13.7
2017-10-11T06:07:30.812Z,13.7
2017-10-11T06:08:30.020Z,13.7
2017-10-11T06:09:29.098Z,13.7
2017-10-11T06:10:28.445Z,13.7
2017-10-11T06:12:27.177Z,13.7
2017-10-11T06:13:26.401Z,13.7
2017-10-11T06:14:25.624Z,13.7
2017-10-11T06:15:24.592Z,13.7
2017-10-11T06:16:23.805Z,13.7
2017-10-11T06:17:23.152Z,13.7
2017-10-11T06:18:22.122Z,13.8
2017-10-11T06:19:21.569Z,13.8
2017-10-11T06:20:20.784Z,13.8
2017-10-11T06:21:20.135Z,13.8
2017-10-11T06:22:19.104Z,13.8
2017-10-11T06:23:18.324Z,13.8
2017-10-11T06:24:17.804Z,13.8
2017-10-11T06:25:16.897Z,13.8
2017-10-11T06:26:15.915Z,13.9
2017-10-11T06:27:15.400Z,13.8
2017-10-11T06:28:14.635Z,13.8
2017-10-11T06:29:13.608Z,13.8
2017-10-11T06:30:12.957Z,13.8
2017-10-11T06:31:11.671Z,13.9
2017-10-11T06:32:11.022Z,13.9
2017-10-11T06:33:10.238Z,13.9
2017-10-11T06:34:09.714Z,13.9
2017-10-11T06:35:09.061Z,13.9
2017-10-11T06:36:08.032Z,13.9
2017-10-11T06:37:07.386Z,13.9
2017-10-11T06:38:06.366Z,13.9
2017-10-11T06:39:05.720Z,14
2017-10-11T06:40:04.935Z,14
2017-10-11T06:41:04.142Z,13.9
2017-10-11T06:42:03.353Z,13.9
2017-10-11T06:43:02.484Z,14
2017-10-11T06:45:00.839Z,14
2017-10-11T06:46:00.314Z,14
2017-10-11T06:46:59.402Z,13.9
2017-10-11T06:47:58.377Z,14
2017-10-11T06:48:57.596Z,14.1
2017-10-11T06:49:56.692Z,14.1
2017-10-11T06:50:56.313Z,14
2017-10-11T06:51:55.393Z,14.1
2017-10-11T06:52:54.612Z,14
2017-10-11T06:53:53.958Z,14
2017-10-11T06:54:52.906Z,14
2017-10-11T06:55:52.261Z,14
2017-10-11T06:56:51.346Z,14
2017-10-11T06:57:50.828Z,14
2017-10-11T06:58:49.911Z,14
2017-10-11T06:59:49.129Z,14
2017-10-11T07:00:48.611Z,14
2017-10-11T07:01:47.732Z,14
2017-10-11T07:02:46.713Z,14.1
2017-10-11T07:03:46.060Z,14.1
2017-10-11T07:04:45.401Z,14.1
2017-10-11T07:05:15.807Z,14.1
2017-10-11T07:05:46.474Z,14.1
2017-10-11T07:06:43.809Z,14.1
2017-10-11T07:07:42.658Z,14.1
2017-10-11T07:08:41.881Z,14.1
2017-10-11T07:10:40.617Z,14.1
2017-10-11T07:11:39.969Z,14.1
2017-10-11T07:12:38.966Z,14.1
2017-10-11T07:13:38.450Z,14.2
2017-10-11T07:14:37.528Z,14.2
2017-10-11T07:15:36.645Z,14.2
2017-10-11T07:16:35.859Z,14.2
2017-10-11T07:17:35.086Z,14.2
2017-10-11T07:18:34.313Z,14.2
2017-10-11T07:19:33.390Z,14.2
2017-10-11T07:20:32.743Z,14.2
2017-10-11T07:21:32.093Z,14.2
2017-10-11T07:22:31.173Z,14.2
2017-10-11T07:23:30.390Z,14.2
2017-10-11T07:24:00.921Z,14.2
2017-10-11T07:24:31.182Z,14.2
2017-10-11T07:25:01.979Z,14.2
2017-10-11T07:25:32.375Z,14.2
2017-10-11T07:26:03.041Z,14.2
2017-10-11T07:27:27.063Z,14.2
2017-10-11T07:28:26.141Z,14.3
2017-10-11T07:29:25.860Z,14.3
2017-10-11T07:30:25.107Z,14.3
2017-10-11T07:31:24.230Z,14.3
2017-10-11T07:32:23.446Z,14.3
2017-10-11T07:33:22.424Z,14.2
2017-10-11T07:34:21.500Z,14.2
2017-10-11T07:35:20.846Z,14.2
2017-10-11T07:36:19.927Z,14.3
2017-10-11T07:37:19.403Z,14.3
2017-10-11T07:38:18.485Z,14.3
2017-10-11T07:39:17.825Z,14.3
2017-10-11T07:40:17.319Z,14.3
2017-10-11T07:41:16.309Z,14.3
2017-10-11T07:42:15.527Z,14.3
2017-10-11T07:43:14.877Z,14.3
2017-10-11T07:44:14.226Z,14.3
2017-10-11T07:45:13.581Z,14.3
2017-10-11T07:46:12.288Z,14.4
2017-10-11T07:48:10.753Z,14.4
2017-10-11T07:49:09.960Z,14.4
2017-10-11T07:50:09.580Z,14.4
2017-10-11T07:51:08.660Z,14.4
2017-10-11T07:52:07.786Z,14.4
2017-10-11T07:53:07.007Z,14.4
2017-10-11T07:55:05.871Z,14.4
2017-10-11T07:56:04.715Z,14.4
2017-10-11T07:57:03.938Z,14.3
2017-10-11T07:58:03.152Z,14.3
2017-10-11T07:59:02.395Z,14.3
2017-10-11T08:00:01.615Z,14.3
2017-10-11T08:01:00.731Z,14.3
2017-10-11T08:01:59.947Z,14.3
2017-10-11T08:02:59.422Z,14.3
2017-10-11T08:03:58.640Z,14.3
2017-10-11T08:04:57.491Z,14.4
2017-10-11T08:06:56.233Z,14.4
2017-10-11T08:07:55.084Z,14.5
2017-10-11T08:08:54.559Z,14.6
2017-10-11T08:09:53.779Z,14.6
2017-10-11T08:10:53.127Z,14.6
2017-10-11T08:11:52.353Z,14.7
2017-10-11T08:12:51.479Z,14.7
2017-10-11T08:13:50.980Z,14.8
2017-10-11T08:14:49.972Z,14.8
2017-10-11T08:15:49.057Z,14.8
2017-10-11T08:16:48.274Z,14.7
2017-10-11T08:17:47.633Z,14.7
2017-10-11T08:18:47.110Z,14.8
2017-10-11T08:20:45.348Z,14.9
2017-10-11T08:21:44.200Z,14.9
2017-10-11T08:22:43.552Z,14.9
2017-10-11T08:23:42.776Z,14.9
2017-10-11T08:24:41.998Z,14.9
2017-10-11T08:25:41.207Z,15
2017-10-11T08:26:40.796Z,15
2017-10-11T08:27:40.024Z,15
2017-10-11T08:28:39.004Z,15
2017-10-11T08:29:38.214Z,15.1
2017-10-11T08:30:37.305Z,15.1
2017-10-11T08:31:36.890Z,15.2
2017-10-11T08:32:36.105Z,15.3
2017-10-11T08:33:35.326Z,15.3
2017-10-11T08:34:34.551Z,15.3
2017-10-11T08:35:33.900Z,15.4
2017-10-11T08:36:33.113Z,15.4
2017-10-11T08:37:32.086Z,15.5
2017-10-11T08:38:31.177Z,15.5
2017-10-11T08:39:30.897Z,15.6
2017-10-11T08:40:29.890Z,15.6
2017-10-11T08:41:28.976Z,15.7
2017-10-11T08:42:28.077Z,15.7
2017-10-11T08:43:27.558Z,15.7
2017-10-11T08:44:26.636Z,15.7
2017-10-11T08:45:25.977Z,15.8
2017-10-11T08:46:25.327Z,15.8
2017-10-11T08:47:24.552Z,15.8
2017-10-11T08:48:23.904Z,15.8
2017-10-11T08:49:22.991Z,15.9
2017-10-11T08:50:22.205Z,15.9
2017-10-11T08:51:21.555Z,15.9
2017-10-11T08:52:21.038Z,16
2017-10-11T08:53:20.258Z,15.9
2017-10-11T08:54:19.606Z,15.9
2017-10-11T08:55:18.330Z,15.9
2017-10-11T08:56:17.956Z,15.9
2017-10-11T08:56:48.110Z,15.9
2017-10-11T08:58:16.249Z,15.9
2017-10-11T08:59:15.599Z,15.8
2017-10-11T09:00:14.583Z,15.8
2017-10-11T09:01:13.927Z,15.8
2017-10-11T09:02:13.017Z,15.8
2017-10-11T09:03:12.629Z,15.8
2017-10-11T09:04:12.109Z,15.8
2017-10-11T09:05:10.950Z,15.7
2017-10-11T09:06:10.433Z,15.7
2017-10-11T09:07:09.276Z,15.7
2017-10-11T09:08:08.997Z,15.7
2017-10-11T09:09:07.942Z,15.7
2017-10-11T09:10:07.292Z,15.7
2017-10-11T09:11:06.302Z,15.7
2017-10-11T09:12:05.650Z,15.7
2017-10-11T09:13:05.006Z,15.6
2017-10-11T09:14:04.491Z,15.6
2017-10-11T09:15:03.714Z,15.7
2017-10-11T09:16:02.716Z,15.6
2017-10-11T09:17:02.073Z,15.6
2017-10-11T09:18:01.290Z,15.6
2017-10-11T09:19:00.774Z,15.7
2017-10-11T09:19:59.856Z,15.7
2017-10-11T09:20:59.206Z,15.7
2017-10-11T09:21:58.161Z,15.7
2017-10-11T09:22:57.754Z,15.7
2017-10-11T09:23:56.972Z,15.8
2017-10-11T09:24:56.074Z,15.8
2017-10-11T09:25:55.553Z,15.8
2017-10-11T09:26:54.687Z,15.8
2017-10-11T09:27:53.773Z,15.7
2017-10-11T09:29:52.512Z,15.8
2017-10-11T09:30:51.507Z,15.8
2017-10-11T09:31:50.860Z,15.8
2017-10-11T09:32:49.830Z,15.8
2017-10-11T09:33:49.327Z,15.8
2017-10-11T09:34:48.938Z,15.8
2017-10-11T09:35:47.791Z,15.8
2017-10-11T09:36:47.021Z,15.8
2017-10-11T09:37:46.373Z,15.9
2017-10-11T09:38:45.582Z,15.9
2017-10-11T09:39:44.864Z,15.9
2017-10-11T09:40:44.219Z,15.9
2017-10-11T09:41:43.200Z,15.9
2017-10-11T09:42:42.686Z,15.9
2017-10-11T09:43:41.665Z,15.9
2017-10-11T09:44:41.427Z,15.9
2017-10-11T09:45:40.554Z,15.9
2017-10-11T09:46:39.530Z,15.9
2017-10-11T09:47:38.899Z,15.9
2017-10-11T09:48:38.380Z,15.9
2017-10-11T09:49:37.094Z,15.9
2017-10-11T09:50:36.810Z,15.9
2017-10-11T09:51:35.896Z,15.9
2017-10-11T09:52:35.118Z,15.9
2017-10-11T09:53:34.472Z,15.9
2017-10-11T09:54:33.697Z,15.9
2017-10-11T09:55:33.047Z,15.9
2017-10-11T09:56:32.133Z,15.9
2017-10-11T09:57:31.358Z,16
2017-10-11T09:59:30.105Z,16
2017-10-11T10:00:29.323Z,16
2017-10-11T10:01:28.176Z,16
2017-10-11T10:02:27.526Z,16.1
2017-10-11T10:03:26.890Z,16.1
2017-10-11T10:04:25.976Z,16.1
2017-10-11T10:05:25.457Z,16.1
2017-10-11T10:06:25.045Z,16.2
2017-10-11T10:07:24.390Z,16.2
2017-10-11T10:08:23.369Z,16.2
2017-10-11T10:09:22.473Z,16.3
2017-10-11T10:10:22.212Z,16.3
2017-10-11T10:11:21.190Z,16.3
2017-10-11T10:12:20.274Z,16.3
2017-10-11T10:13:19.364Z,16.3
2017-10-11T10:14:19.086Z,16.4
2017-10-11T10:15:18.306Z,16.4
2017-10-11T10:16:17.172Z,16.4
2017-10-11T10:17:16.653Z,16.5
2017-10-11T10:18:16.008Z,16.6
2017-10-11T10:19:15.373Z,16.6
2017-10-11T10:20:14.233Z,16.6
2017-10-11T10:21:13.950Z,16.7
2017-10-11T10:22:12.660Z,16.7
2017-10-11T10:23:12.221Z,16.7
2017-10-11T10:24:11.437Z,16.7
2017-10-11T10:25:10.649Z,16.7
2017-10-11T10:26:09.865Z,16.8
2017-10-11T10:27:09.090Z,16.8
2017-10-11T10:28:08.436Z,16.8
2017-10-11T10:29:07.784Z,16.9
2017-10-11T10:30:06.997Z,16.8
2017-10-11T10:31:06.212Z,16.8
2017-10-11T10:32:05.560Z,16.8
2017-10-11T10:33:05.151Z,16.7
2017-10-11T10:34:04.141Z,16.7
2017-10-11T10:34:34.293Z,16.7
2017-10-11T10:35:04.699Z,16.7
2017-10-11T10:35:35.371Z,16.7
2017-10-11T10:36:06.176Z,16.7
2017-10-11T10:37:01.870Z,16.7
2017-10-11T10:38:01.089Z,16.7
2017-10-11T10:39:00.440Z,16.6
2017-10-11T10:39:59.653Z,16.6
2017-10-11T10:40:59.236Z,16.6
2017-10-11T10:41:58.456Z,16.6
2017-10-11T10:42:57.803Z,16.6
2017-10-11T10:43:57.019Z,16.6
2017-10-11T10:44:56.235Z,16.6
2017-10-11T10:45:55.739Z,16.6
2017-10-11T10:46:54.951Z,16.6
2017-10-11T10:47:53.800Z,16.6
2017-10-11T10:48:53.153Z,16.6
2017-10-11T10:49:52.237Z,16.6
2017-10-11T10:50:52.222Z,16.6
2017-10-11T10:51:50.940Z,16.6
2017-10-11T10:52:50.677Z,16.6
2017-10-11T10:53:49.743Z,16.6
2017-10-11T10:54:48.852Z,16.5
2017-10-11T10:55:48.340Z,16.5
2017-10-11T10:56:47.560Z,16.5
2017-10-11T10:57:46.641Z,16.5
2017-10-11T10:58:46.225Z,16.5
2017-10-11T10:59:45.347Z,16.5
2017-10-11T11:00:44.835Z,16.5
2017-10-11T11:01:44.195Z,16.5
2017-10-11T11:02:43.043Z,16.5
2017-10-11T11:03:42.390Z,16.5
2017-10-11T11:05:40.855Z,16.5
2017-10-11T11:06:40.337Z,16.6
2017-10-11T11:08:39.090Z,16.7
2017-10-11T11:09:38.209Z,16.8
2017-10-11T11:10:37.283Z,16.9
2017-10-11T11:11:37.009Z,16.9
2017-10-11T11:12:35.848Z,17
2017-10-11T11:13:35.064Z,17
2017-10-11T11:14:34.280Z,17
2017-10-11T11:15:33.892Z,17
2017-10-11T11:16:33.247Z,17
2017-10-11T11:17:32.093Z,16.9
2017-10-11T11:18:31.680Z,16.9
2017-10-11T11:19:02.342Z,16.9
2017-10-11T11:19:33.012Z,16.9
2017-10-11T11:20:30.355Z,16.9
2017-10-11T11:21:29.206Z,16.9
2017-10-11T11:22:28.410Z,16.9
2017-10-11T11:23:27.634Z,16.9
2017-10-11T11:24:27.477Z,16.9
2017-10-11T11:25:26.331Z,16.9
2017-10-11T11:26:26.043Z,16.9
2017-10-11T11:27:24.898Z,17
2017-10-11T11:28:24.376Z,17
2017-10-11T11:29:23.492Z,17
2017-10-11T11:30:22.970Z,17
2017-10-11T11:31:22.306Z,17
2017-10-11T11:32:21.388Z,17
2017-10-11T11:33:21.037Z,16.9
2017-10-11T11:34:20.250Z,16.9
2017-10-11T11:35:19.333Z,16.9
2017-10-11T11:37:18.072Z,16.9
2017-10-11T11:38:17.154Z,16.9
2017-10-11T11:40:15.431Z,16.8
2017-10-11T11:41:15.280Z,16.8
2017-10-11T11:42:14.363Z,16.9
2017-10-11T11:43:13.839Z,16.9
2017-10-11T11:44:13.190Z,16.8
2017-10-11T11:45:12.281Z,16.8
2017-10-11T11:46:11.265Z,16.8
2017-10-11T11:47:10.612Z,16.8
2017-10-11T11:48:10.201Z,16.8
2017-10-11T11:49:09.171Z,16.8
2017-10-11T11:50:08.669Z,16.8
2017-10-11T11:51:07.774Z,16.8
2017-10-11T11:52:07.516Z,16.8
2017-10-11T11:53:06.384Z,16.8
2017-10-11T11:54:05.864Z,16.8
2017-10-11T11:55:04.843Z,16.9
2017-10-11T11:56:04.315Z,16.9
2017-10-11T11:57:03.688Z,16.9
2017-10-11T11:58:02.661Z,16.9
2017-10-11T11:59:02.116Z,17
2017-10-11T12:00:01.334Z,17
2017-10-11T12:01:00.822Z,17
2017-10-11T12:01:59.672Z,17
2017-10-11T12:02:58.888Z,17
2017-10-11T12:03:58.366Z,17.1
2017-10-11T12:04:57.823Z,17.1
2017-10-11T12:05:56.902Z,17.2
2017-10-11T12:06:56.490Z,17.1
2017-10-11T12:07:55.703Z,17.2
2017-10-11T12:08:55.179Z,17.2
2017-10-11T12:09:54.294Z,17.2
2017-10-11T12:10:53.510Z,17.2
2017-10-11T12:11:52.751Z,17.2
2017-10-11T12:12:51.974Z,17.2
2017-10-11T12:13:51.186Z,17.2
2017-10-11T12:14:50.538Z,17.2
2017-10-11T12:15:49.616Z,17.2
2017-10-11T12:16:49.113Z,17.2
2017-10-11T12:17:48.337Z,17.3
2017-10-11T12:18:48.059Z,17.3
2017-10-11T12:19:46.774Z,17.4
2017-10-11T12:20:46.259Z,17.5
2017-10-11T12:21:45.742Z,17.6
2017-10-11T12:22:45.091Z,17.6
2017-10-11T12:23:44.211Z,17.6
2017-10-11T12:24:43.558Z,17.6
2017-10-11T12:26:42.180Z,17.5
2017-10-11T12:27:41.400Z,17.4
2017-10-11T12:29:40.004Z,17.3
2017-10-11T12:30:39.093Z,17.3
2017-10-11T12:31:38.715Z,17.3
2017-10-11T12:33:36.958Z,17.3
2017-10-11T12:34:36.543Z,17.3
2017-10-11T12:36:35.055Z,17.3
2017-10-11T12:38:33.656Z,17.3
2017-10-11T12:39:32.871Z,17.3
2017-10-11T12:40:32.487Z,17.2
2017-10-11T12:41:31.475Z,17.2
2017-10-11T12:42:30.833Z,17.1
2017-10-11T12:43:30.179Z,17.1
2017-10-11T12:44:29.528Z,17.1
2017-10-11T12:45:28.638Z,17.1
2017-10-11T12:46:28.121Z,17
2017-10-11T12:47:27.475Z,17
2017-10-11T12:48:26.451Z,17
2017-10-11T12:49:25.662Z,17
2017-10-11T12:50:25.019Z,17
2017-10-11T12:51:24.633Z,17
2017-10-11T12:52:23.854Z,17
2017-10-11T12:53:23.198Z,17
2017-10-11T12:54:22.280Z,16.9
2017-10-11T12:55:21.506Z,16.9
2017-10-11T12:56:20.986Z,16.9
2017-10-11T12:57:20.204Z,16.9
2017-10-11T12:58:19.183Z,16.9
2017-10-11T12:59:18.898Z,16.9
2017-10-11T13:00:18.281Z,17
2017-10-11T13:01:17.125Z,16.9
2017-10-11T13:02:16.351Z,16.9
2017-10-11T13:03:16.077Z,16.9
2017-10-11T13:04:15.187Z,16.9
2017-10-11T13:05:14.277Z,16.9
2017-10-11T13:06:13.759Z,16.9
2017-10-11T13:07:13.238Z,16.9
2017-10-11T13:08:11.958Z,16.9
2017-10-11T13:08:42.628Z,16.9
2017-10-11T13:09:13.159Z,16.9
2017-10-11T13:09:43.683Z,16.9
2017-10-11T13:10:14.082Z,16.9
2017-10-11T13:11:10.278Z,17
2017-10-11T13:13:08.878Z,17
2017-10-11T13:14:08.097Z,17
2017-10-11T13:15:07.581Z,17
2017-10-11T13:16:06.320Z,17.1
2017-10-11T13:17:05.666Z,17.1
2017-10-11T13:18:05.031Z,17.1
2017-10-11T13:19:04.641Z,17.2
2017-10-11T13:20:03.493Z,17.2
2017-10-11T13:21:02.720Z,17.2
2017-10-11T13:22:02.577Z,17.2
2017-10-11T13:23:01.288Z,17.2
2017-10-11T13:24:00.781Z,17.2
2017-10-11T13:25:00.130Z,17.2
2017-10-11T13:25:59.608Z,17.2
2017-10-11T13:26:30.280Z,17.2
2017-10-11T13:27:00.935Z,17.1
2017-10-11T13:27:31.360Z,17.1
2017-10-11T13:28:01.527Z,17.1
2017-10-11T13:28:32.190Z,17.1
2017-10-11T13:29:56.834Z,17
2017-10-11T13:31:55.070Z,17
2017-10-11T13:32:54.663Z,17
2017-10-11T13:33:53.889Z,17
2017-10-11T13:34:53.507Z,17
2017-10-11T13:35:52.227Z,17
2017-10-11T13:36:51.814Z,17
2017-10-11T13:37:50.767Z,17
2017-10-11T13:38:49.979Z,17
2017-10-11T13:39:49.195Z,17
2017-10-11T13:40:48.687Z,17
2017-10-11T13:41:47.774Z,17
2017-10-11T13:42:47.753Z,17
2017-10-11T13:43:47.102Z,17
2017-10-11T13:44:45.815Z,17
2017-10-11T13:45:45.303Z,17
2017-10-11T13:46:44.530Z,17
2017-10-11T13:47:43.889Z,17
2017-10-11T13:48:43.515Z,17
2017-10-11T13:49:42.463Z,17